HWL215 YSSY-YMML
Flight info
| Callsign | HWL215 |
|---|---|
| Flight time | N/A |
| Altitude | 36000 |
| Route | WOL H65 LEECE Q29 ML |
| Aircraft | E190/M-SDE1E2E3FGHIJ3J4J7P2RWXY/LB1D1G1 |
Departure
| Time | 2026-05-04 05:36 |
|---|---|
| Airport | Sydney Kingsford Smith International Airport (YSSY) |
Arrival
| Time | N/A |
|---|---|
| Airport | Melbourne Airport (YMML) |
| Time | Latitude | Longitude | Altitude | Speed | Heading |
|---|---|---|---|---|---|
| 2026-05-04 04:53 | -33.93377 | 151.18964 | 28 ft | 0 kts | 279° |
| 2026-05-04 05:18 | -33.93377 | 151.18962 | 28 ft | 0 kts | 277° |
| 2026-05-04 05:19 | -33.93385 | 151.18942 | 28 ft | 6 kts | 244° |
| 2026-05-04 05:19 | -33.93410 | 151.18890 | 28 ft | 8 kts | 219° |
| 2026-05-04 05:19 | -33.93427 | 151.18880 | 28 ft | 0 kts | 201° |
| 2026-05-04 05:19 | -33.93436 | 151.18875 | 28 ft | 2 kts | 201° |
| 2026-05-04 05:20 | -33.93455 | 151.18867 | 28 ft | 3 kts | 195° |
| 2026-05-04 05:20 | -33.93483 | 151.18860 | 28 ft | 5 kts | 193° |
| 2026-05-04 05:20 | -33.93519 | 151.18851 | 28 ft | 6 kts | 187° |
| 2026-05-04 05:20 | -33.93570 | 151.18840 | 28 ft | 8 kts | 197° |
| 2026-05-04 05:21 | -33.93599 | 151.18802 | 28 ft | 8 kts | 251° |
| 2026-05-04 05:21 | -33.93613 | 151.18739 | 28 ft | 9 kts | 256° |
| 2026-05-04 05:21 | -33.93628 | 151.18674 | 28 ft | 10 kts | 253° |
| 2026-05-04 05:21 | -33.93651 | 151.18582 | 28 ft | 11 kts | 254° |
| 2026-05-04 05:22 | -33.93675 | 151.18477 | 28 ft | 13 kts | 253° |
| 2026-05-04 05:22 | -33.93702 | 151.18362 | 28 ft | 14 kts | 256° |
| 2026-05-04 05:22 | -33.93729 | 151.18248 | 28 ft | 15 kts | 253° |
| 2026-05-04 05:22 | -33.93755 | 151.18140 | 28 ft | 16 kts | 254° |
| 2026-05-04 05:23 | -33.93781 | 151.18028 | 28 ft | 17 kts | 255° |
| 2026-05-04 05:23 | -33.93813 | 151.17891 | 28 ft | 18 kts | 254° |
| 2026-05-04 05:23 | -33.93845 | 151.17790 | 28 ft | 16 kts | 224° |
| 2026-05-04 05:23 | -33.93938 | 151.17792 | 28 ft | 16 kts | 164° |
| 2026-05-04 05:24 | -33.94051 | 151.17819 | 28 ft | 18 kts | 168° |
| 2026-05-04 05:24 | -33.94158 | 151.17847 | 28 ft | 19 kts | 168° |
| 2026-05-04 05:24 | -33.94271 | 151.17876 | 28 ft | 20 kts | 167° |
| 2026-05-04 05:24 | -33.94407 | 151.17911 | 28 ft | 21 kts | 170° |
| 2026-05-04 05:25 | -33.94520 | 151.17877 | 28 ft | 13 kts | 171° |
| 2026-05-04 05:25 | -33.94584 | 151.17897 | 28 ft | 9 kts | 168° |
| 2026-05-04 05:25 | -33.94661 | 151.17918 | 28 ft | 11 kts | 167° |
| 2026-05-04 05:25 | -33.94745 | 151.17941 | 28 ft | 12 kts | 166° |
| 2026-05-04 05:26 | -33.94835 | 151.17967 | 28 ft | 13 kts | 171° |
| 2026-05-04 05:26 | -33.94934 | 151.17989 | 28 ft | 14 kts | 168° |
| 2026-05-04 05:26 | -33.95025 | 151.18013 | 28 ft | 16 kts | 167° |
| 2026-05-04 05:26 | -33.95099 | 151.18079 | 28 ft | 16 kts | 98° |
| 2026-05-04 05:27 | -33.95083 | 151.18198 | 28 ft | 17 kts | 78° |
| 2026-05-04 05:28 | -33.95167 | 151.18602 | 28 ft | 14 kts | 137° |
| 2026-05-04 05:29 | -33.95243 | 151.18680 | 28 ft | 15 kts | 142° |
| 2026-05-04 05:29 | -33.95330 | 151.18726 | 28 ft | 16 kts | 167° |
| 2026-05-04 05:29 | -33.95429 | 151.18751 | 28 ft | 17 kts | 167° |
| 2026-05-04 05:29 | -33.95541 | 151.18780 | 28 ft | 18 kts | 168° |
| 2026-05-04 05:31 | -33.96630 | 151.19063 | 28 ft | 27 kts | 167° |
| 2026-05-04 05:32 | -33.96931 | 151.19093 | 28 ft | 16 kts | 167° |
| 2026-05-04 05:32 | -33.97052 | 151.19128 | 28 ft | 17 kts | 166° |
| 2026-05-04 05:32 | -33.97117 | 151.19165 | 28 ft | 10 kts | 122° |
| 2026-05-04 05:33 | -33.97115 | 151.19257 | 28 ft | 0 kts | 76° |
| 2026-05-04 05:34 | -33.97115 | 151.19260 | 28 ft | 1 kts | 76° |
| 2026-05-04 05:34 | -33.97110 | 151.19282 | 28 ft | 6 kts | 76° |
| 2026-05-04 05:34 | -33.97087 | 151.19344 | 28 ft | 12 kts | 53° |
| 2026-05-04 05:35 | -33.96975 | 151.19354 | 28 ft | 39 kts | 348° |
| 2026-05-04 05:35 | -33.96510 | 151.19234 | 28 ft | 106 kts | 349° |
| 2026-05-04 05:35 | -33.95477 | 151.19012 | 197 ft | 152 kts | 353° |
| 2026-05-04 05:35 | -33.94290 | 151.18767 | 296 ft | 197 kts | 351° |
| 2026-05-04 05:36 | -33.91384 | 151.20903 | 746 ft | 185 kts | 98° |
| 2026-05-04 05:36 | -33.91934 | 151.22363 | 657 ft | 173 kts | 115° |
| 2026-05-04 05:37 | -33.92657 | 151.24100 | 585 ft | 167 kts | 106° |
| 2026-05-04 05:37 | -33.93029 | 151.25642 | 1307 ft | 186 kts | 96° |
| 2026-05-04 05:37 | -33.93242 | 151.27156 | 1998 ft | 204 kts | 92° |
| 2026-05-04 05:38 | -33.93441 | 151.33931 | 4325 ft | 280 kts | 85° |
| 2026-05-04 05:38 | -33.93357 | 151.39510 | 4964 ft | 281 kts | 84° |
| 2026-05-04 05:39 | -33.93302 | 151.42137 | 4970 ft | 283 kts | 84° |
| 2026-05-04 05:39 | -33.93190 | 151.46735 | 4960 ft | 283 kts | 85° |
| 2026-05-04 05:39 | -33.93841 | 151.49577 | 4983 ft | 293 kts | 125° |
| 2026-05-04 05:40 | -33.98682 | 151.50886 | 4987 ft | 282 kts | 217° |
| 2026-05-04 05:40 | -33.99932 | 151.49272 | 4982 ft | 267 kts | 251° |
| 2026-05-04 05:40 | -34.00509 | 151.47128 | 4984 ft | 263 kts | 259° |
| 2026-05-04 05:41 | -34.01199 | 151.45142 | 4973 ft | 268 kts | 245° |
| 2026-05-04 05:41 | -34.02254 | 151.43272 | 4975 ft | 272 kts | 237° |
| 2026-05-04 05:41 | -34.03475 | 151.41522 | 4973 ft | 273 kts | 234° |
| 2026-05-04 05:41 | -34.04757 | 151.39865 | 4971 ft | 274 kts | 232° |
| 2026-05-04 05:42 | -34.06062 | 151.38258 | 4985 ft | 273 kts | 231° |